Friday, August 17, 2018, 10:52 PM EDT
Back to Local

KNUI, Knui Webster Field Annex

Location: Saint Inigoes, MD, United States Lat: 38.15
Local Time: 10:52 PM EDT ( 2:52 GMT) Lon: -76.417
Time Zone: US/Eastern Elev: 19 ft

Show me the last for .
Show Decoded

2018-08-17 21:53 METAR KNUI 180153Z AUTO 19008KT 10SM CLR 29/24 A2997 RMK AO2 SLP146 T02890244 =
2018-08-17 20:53 METAR KNUI 180053Z AUTO 19007KT 10SM CLR 29/24 A2996 RMK AO2 SLP143 T02940244 =
2018-08-17 19:53 METAR KNUI 172353Z AUTO 18006KT 9SM CLR 30/25 A2996 RMK AO2 SLP145 T03000250
                 10333 20300 58007 =
2018-08-17 18:53 METAR KNUI 172253Z AUTO 18005KT 9SM CLR 31/24 A2997 RMK AO2 SLP148 T03060244 =
2018-08-17 17:53 METAR KNUI 172153Z AUTO 19005KT 9SM CLR 31/24 A2997 RMK AO2 SLP149 T03110244 =
2018-08-17 16:53 METAR KNUI 172053Z AUTO 18010KT 10SM CLR 33/24 A2998 RMK AO2 SLP151 T03280239
                 56017 =
2018-08-17 15:53 METAR KNUI 171953Z AUTO VRB06KT 10SM CLR 33/23 A3000 RMK AO2 SLP156 T03330233 =
2018-08-17 14:53 METAR KNUI 171853Z AUTO 17009KT 10SM CLR 33/22 A3001 RMK AO2 SLP162 T03280222 =
2018-08-17 13:53 METAR KNUI 171753Z AUTO 16006KT 10SM CLR 33/23 A3003 RMK AO2 SLP168 T03280233
                 10328 20272 58015 =
2018-08-17 12:53 METAR KNUI 171653Z AUTO VRB04KT 10SM CLR 32/23 A3005 RMK AO2 SLP174 T03220233 =
2018-08-17 11:53 METAR KNUI 171553Z AUTO 22003KT 9SM CLR 31/23 A3007 RMK AO2 SLP181 T03110233 =
2018-08-17 10:53 METAR KNUI 171453Z AUTO VRB04KT 9SM CLR 30/24 A3007 RMK AO2 SLP183 T03000239
                 57003 =
2018-08-17 09:53 METAR KNUI 171353Z AUTO 19004KT 8SM CLR 28/24 A3008 RMK AO2 SLP184 T02830239 =
2018-08-17 08:53 METAR KNUI 171253Z AUTO 19003KT 7SM CLR 28/24 A3008 RMK AO2 SLP186 T02780239 =
2018-08-17 07:53 METAR KNUI 171153Z AUTO 19003KT 7SM CLR 27/23 A3008 RMK AO2 SLP186 T02670233
                 10267 20244 50002 =
2018-08-17 06:53 METAR KNUI 171053Z AUTO 19004KT 7SM CLR 25/23 A3009 RMK AO2 SLP187 T02500228 =
2018-08-17 05:53 METAR KNUI 170953Z AUTO 00000KT 8SM CLR 26/23 A3008 RMK AO2 SLP186 T02560233 =
2018-08-17 04:53 METAR KNUI 170853Z AUTO 16003KT 9SM CLR 26/23 A3008 RMK AO2 SLP185 T02610233
                 56006 =
2018-08-17 03:53 METAR KNUI 170753Z AUTO 18003KT 9SM BKN050 27/23 A3009 RMK AO2 SLP187 T02670233
                 =
2018-08-17 02:53 METAR KNUI 170653Z AUTO 18005KT 9SM CLR 26/24 A3009 RMK AO2 SLP189 T02610239 =
2018-08-17 01:53 METAR KNUI 170553Z AUTO 17004KT 10SM CLR 27/24 A3010 RMK AO2 SLP191 T02670239
                 10272 20239 58001 =
2018-08-17 00:53 METAR KNUI 170453Z AUTO 17006KT 10SM CLR 27/23 A3010 RMK AO2 SLP192 T02670228
                 403110211 =
2018-08-16 23:53 METAR KNUI 170353Z AUTO 17004KT 10SM CLR 27/23 A3010 RMK AO2 SLP192 T02670228 =
2018-08-16 22:53 METAR KNUI 170253Z AUTO 16004KT 10SM CLR 27/23 A3010 RMK AO2 SLP192 T02720233
                 50006 =

Support USWX by starting your Amazon purchase here.